sensor_id;sensor_type;location;lat;lon;timestamp;P1;durP1;ratioP1;P2;durP2;ratioP2
7330;SDS011;3706;49.198;7.064;2022-12-07T00:01:25;12.57;;;9.20;;
7330;SDS011;3706;49.198;7.064;2022-12-07T00:03:54;14.90;;;9.57;;
7330;SDS011;3706;49.198;7.064;2022-12-07T00:06:28;13.27;;;9.30;;
7330;SDS011;3706;49.198;7.064;2022-12-07T00:08:57;12.30;;;9.27;;
7330;SDS011;3706;49.198;7.064;2022-12-07T00:11:24;13.47;;;8.83;;
7330;SDS011;3706;49.198;7.064;2022-12-07T00:13:52;13.03;;;8.87;;
7330;SDS011;3706;49.198;7.064;2022-12-07T00:16:20;9.87;;;7.87;;
7330;SDS011;3706;49.198;7.064;2022-12-07T00:18:52;14.30;;;8.43;;
7330;SDS011;3706;49.198;7.064;2022-12-07T00:21:20;11.10;;;8.10;;
7330;SDS011;3706;49.198;7.064;2022-12-07T00:23:50;13.77;;;8.63;;
7330;SDS011;3706;49.198;7.064;2022-12-07T00:26:18;11.07;;;8.53;;
7330;SDS011;3706;49.198;7.064;2022-12-07T00:28:46;10.27;;;8.10;;
7330;SDS011;3706;49.198;7.064;2022-12-07T00:31:14;12.37;;;9.03;;
7330;SDS011;3706;49.198;7.064;2022-12-07T00:33:42;10.33;;;8.20;;
7330;SDS011;3706;49.198;7.064;2022-12-07T00:36:11;11.77;;;7.93;;
7330;SDS011;3706;49.198;7.064;2022-12-07T00:38:41;11.57;;;7.80;;
7330;SDS011;3706;49.198;7.064;2022-12-07T00:41:11;10.90;;;7.30;;
7330;SDS011;3706;49.198;7.064;2022-12-07T00:43:39;11.60;;;8.87;;
7330;SDS011;3706;49.198;7.064;2022-12-07T00:46:07;11.33;;;8.27;;
7330;SDS011;3706;49.198;7.064;2022-12-07T00:48:34;11.40;;;8.17;;
7330;SDS011;3706;49.198;7.064;2022-12-07T00:51:02;12.30;;;8.33;;
7330;SDS011;3706;49.198;7.064;2022-12-07T00:53:29;10.03;;;7.77;;
7330;SDS011;3706;49.198;7.064;2022-12-07T00:55:56;13.63;;;8.50;;
7330;SDS011;3706;49.198;7.064;2022-12-07T00:58:25;11.27;;;8.03;;
7330;SDS011;3706;49.198;7.064;2022-12-07T01:00:52;10.77;;;8.07;;
7330;SDS011;3706;49.198;7.064;2022-12-07T01:03:18;13.63;;;8.87;;
7330;SDS011;3706;49.198;7.064;2022-12-07T01:05:49;11.33;;;7.53;;
7330;SDS011;3706;49.198;7.064;2022-12-07T01:08:17;11.87;;;7.57;;
7330;SDS011;3706;49.198;7.064;2022-12-07T01:10:44;9.80;;;7.60;;
7330;SDS011;3706;49.198;7.064;2022-12-07T01:13:11;12.30;;;8.33;;
7330;SDS011;3706;49.198;7.064;2022-12-07T01:15:40;12.00;;;8.10;;
7330;SDS011;3706;49.198;7.064;2022-12-07T01:18:07;10.40;;;7.07;;
7330;SDS011;3706;49.198;7.064;2022-12-07T01:20:34;9.43;;;6.97;;
7330;SDS011;3706;49.198;7.064;2022-12-07T01:23:02;9.00;;;6.90;;
7330;SDS011;3706;49.198;7.064;2022-12-07T01:25:29;11.00;;;7.47;;
7330;SDS011;3706;49.198;7.064;2022-12-07T01:27:56;11.47;;;8.07;;
7330;SDS011;3706;49.198;7.064;2022-12-07T01:30:23;9.47;;;7.60;;
7330;SDS011;3706;49.198;7.064;2022-12-07T01:32:51;11.13;;;7.83;;
7330;SDS011;3706;49.198;7.064;2022-12-07T01:35:18;10.73;;;8.37;;
7330;SDS011;3706;49.198;7.064;2022-12-07T01:37:45;10.63;;;6.93;;
7330;SDS011;3706;49.198;7.064;2022-12-07T01:40:12;9.60;;;7.60;;
7330;SDS011;3706;49.198;7.064;2022-12-07T01:42:39;10.73;;;7.70;;
7330;SDS011;3706;49.198;7.064;2022-12-07T01:48:12;9.53;;;7.53;;
7330;SDS011;3706;49.198;7.064;2022-12-07T01:50:44;10.90;;;6.93;;
7330;SDS011;3706;49.198;7.064;2022-12-07T01:53:14;12.53;;;7.63;;
7330;SDS011;3706;49.198;7.064;2022-12-07T01:55:44;9.57;;;7.00;;
7330;SDS011;3706;49.198;7.064;2022-12-07T01:58:13;10.53;;;7.20;;
7330;SDS011;3706;49.198;7.064;2022-12-07T02:00:42;10.03;;;6.87;;
7330;SDS011;3706;49.198;7.064;2022-12-07T02:03:11;9.63;;;6.37;;
7330;SDS011;3706;49.198;7.064;2022-12-07T02:05:42;10.13;;;6.70;;
7330;SDS011;3706;49.198;7.064;2022-12-07T02:08:10;10.80;;;7.47;;
7330;SDS011;3706;49.198;7.064;2022-12-07T02:10:39;12.93;;;8.03;;
7330;SDS011;3706;49.198;7.064;2022-12-07T02:13:06;10.37;;;7.50;;
7330;SDS011;3706;49.198;7.064;2022-12-07T02:15:45;12.40;;;8.90;;
7330;SDS011;3706;49.198;7.064;2022-12-07T02:18:25;10.50;;;7.93;;
7330;SDS011;3706;49.198;7.064;2022-12-07T02:21:03;13.50;;;8.23;;
7330;SDS011;3706;49.198;7.064;2022-12-07T02:23:39;11.73;;;8.07;;
7330;SDS011;3706;49.198;7.064;2022-12-07T02:26:37;11.17;;;7.93;;
7330;SDS011;3706;49.198;7.064;2022-12-07T02:29:24;9.97;;;6.97;;
7330;SDS011;3706;49.198;7.064;2022-12-07T02:31:55;10.87;;;6.97;;
7330;SDS011;3706;49.198;7.064;2022-12-07T02:34:32;9.70;;;7.40;;
7330;SDS011;3706;49.198;7.064;2022-12-07T02:37:07;12.37;;;8.43;;
7330;SDS011;3706;49.198;7.064;2022-12-07T02:39:41;10.93;;;6.70;;
7330;SDS011;3706;49.198;7.064;2022-12-07T02:42:14;10.10;;;7.10;;
7330;SDS011;3706;49.198;7.064;2022-12-07T02:44:45;11.73;;;7.37;;
7330;SDS011;3706;49.198;7.064;2022-12-07T02:47:14;11.70;;;8.10;;
7330;SDS011;3706;49.198;7.064;2022-12-07T02:49:44;12.53;;;7.90;;
7330;SDS011;3706;49.198;7.064;2022-12-07T02:52:12;12.27;;;7.97;;
7330;SDS011;3706;49.198;7.064;2022-12-07T02:54:39;11.17;;;7.67;;
7330;SDS011;3706;49.198;7.064;2022-12-07T02:57:10;11.63;;;8.00;;
7330;SDS011;3706;49.198;7.064;2022-12-07T02:59:52;11.87;;;8.43;;
7330;SDS011;3706;49.198;7.064;2022-12-07T03:02:28;14.97;;;8.80;;
7330;SDS011;3706;49.198;7.064;2022-12-07T03:05:07;9.07;;;7.27;;
7330;SDS011;3706;49.198;7.064;2022-12-07T03:07:43;14.07;;;8.73;;
7330;SDS011;3706;49.198;7.064;2022-12-07T03:10:17;10.23;;;7.70;;
7330;SDS011;3706;49.198;7.064;2022-12-07T03:12:51;12.77;;;7.53;;
7330;SDS011;3706;49.198;7.064;2022-12-07T03:15:26;10.23;;;6.80;;
7330;SDS011;3706;49.198;7.064;2022-12-07T03:17:57;8.70;;;6.50;;
7330;SDS011;3706;49.198;7.064;2022-12-07T03:20:27;10.67;;;6.90;;
7330;SDS011;3706;49.198;7.064;2022-12-07T03:22:56;8.83;;;7.10;;
7330;SDS011;3706;49.198;7.064;2022-12-07T03:25:23;10.57;;;7.43;;
7330;SDS011;3706;49.198;7.064;2022-12-07T03:27:52;13.10;;;8.23;;
7330;SDS011;3706;49.198;7.064;2022-12-07T03:30:22;10.20;;;6.70;;
7330;SDS011;3706;49.198;7.064;2022-12-07T03:32:55;9.20;;;7.03;;
7330;SDS011;3706;49.198;7.064;2022-12-07T03:35:26;9.70;;;6.80;;
7330;SDS011;3706;49.198;7.064;2022-12-07T03:37:55;11.17;;;8.33;;
7330;SDS011;3706;49.198;7.064;2022-12-07T03:40:26;14.67;;;8.60;;
7330;SDS011;3706;49.198;7.064;2022-12-07T03:42:56;13.43;;;9.03;;
7330;SDS011;3706;49.198;7.064;2022-12-07T03:45:29;12.20;;;7.40;;
7330;SDS011;3706;49.198;7.064;2022-12-07T03:48:04;13.67;;;7.97;;
7330;SDS011;3706;49.198;7.064;2022-12-07T03:50:36;11.73;;;7.93;;
7330;SDS011;3706;49.198;7.064;2022-12-07T03:53:11;10.93;;;7.60;;
7330;SDS011;3706;49.198;7.064;2022-12-07T03:55:41;7.77;;;6.00;;
7330;SDS011;3706;49.198;7.064;2022-12-07T03:58:11;11.57;;;7.50;;
7330;SDS011;3706;49.198;7.064;2022-12-07T04:00:43;9.67;;;7.00;;
7330;SDS011;3706;49.198;7.064;2022-12-07T04:03:10;10.53;;;7.70;;
7330;SDS011;3706;49.198;7.064;2022-12-07T04:05:38;10.33;;;7.23;;
7330;SDS011;3706;49.198;7.064;2022-12-07T04:08:06;9.83;;;7.63;;
7330;SDS011;3706;49.198;7.064;2022-12-07T04:10:32;9.50;;;7.27;;
7330;SDS011;3706;49.198;7.064;2022-12-07T04:13:00;9.63;;;7.20;;
7330;SDS011;3706;49.198;7.064;2022-12-07T04:15:27;10.93;;;8.50;;
7330;SDS011;3706;49.198;7.064;2022-12-07T04:17:55;10.77;;;7.00;;
7330;SDS011;3706;49.198;7.064;2022-12-07T04:20:22;10.10;;;7.63;;
7330;SDS011;3706;49.198;7.064;2022-12-07T04:22:49;16.37;;;8.27;;
7330;SDS011;3706;49.198;7.064;2022-12-07T04:25:16;10.83;;;7.80;;
7330;SDS011;3706;49.198;7.064;2022-12-07T04:27:43;10.43;;;7.63;;
7330;SDS011;3706;49.198;7.064;2022-12-07T04:30:10;12.40;;;8.50;;
7330;SDS011;3706;49.198;7.064;2022-12-07T04:32:37;11.10;;;7.47;;
7330;SDS011;3706;49.198;7.064;2022-12-07T04:35:05;10.23;;;7.83;;
7330;SDS011;3706;49.198;7.064;2022-12-07T04:37:33;12.03;;;7.30;;
7330;SDS011;3706;49.198;7.064;2022-12-07T04:40:00;11.63;;;7.87;;
7330;SDS011;3706;49.198;7.064;2022-12-07T04:42:27;10.50;;;7.60;;
7330;SDS011;3706;49.198;7.064;2022-12-07T04:44:53;10.20;;;7.53;;
7330;SDS011;3706;49.198;7.064;2022-12-07T04:47:20;12.63;;;8.50;;
7330;SDS011;3706;49.198;7.064;2022-12-07T04:49:47;10.33;;;7.10;;
7330;SDS011;3706;49.198;7.064;2022-12-07T04:52:15;10.73;;;7.47;;
7330;SDS011;3706;49.198;7.064;2022-12-07T04:54:42;11.47;;;7.53;;
7330;SDS011;3706;49.198;7.064;2022-12-07T04:57:09;9.20;;;6.77;;
7330;SDS011;3706;49.198;7.064;2022-12-07T04:59:36;10.73;;;7.73;;
7330;SDS011;3706;49.198;7.064;2022-12-07T05:02:03;10.77;;;7.97;;
7330;SDS011;3706;49.198;7.064;2022-12-07T05:04:30;13.93;;;8.10;;
7330;SDS011;3706;49.198;7.064;2022-12-07T05:06:57;9.40;;;7.37;;
7330;SDS011;3706;49.198;7.064;2022-12-07T05:09:25;11.70;;;7.30;;
7330;SDS011;3706;49.198;7.064;2022-12-07T05:11:52;9.90;;;6.70;;
7330;SDS011;3706;49.198;7.064;2022-12-07T05:14:19;14.70;;;8.90;;
7330;SDS011;3706;49.198;7.064;2022-12-07T05:16:47;10.93;;;8.53;;
7330;SDS011;3706;49.198;7.064;2022-12-07T05:19:15;11.13;;;7.87;;
7330;SDS011;3706;49.198;7.064;2022-12-07T05:21:43;11.10;;;7.50;;
7330;SDS011;3706;49.198;7.064;2022-12-07T05:24:11;12.13;;;8.57;;
7330;SDS011;3706;49.198;7.064;2022-12-07T05:26:40;12.40;;;7.60;;
7330;SDS011;3706;49.198;7.064;2022-12-07T05:29:10;12.67;;;7.87;;
7330;SDS011;3706;49.198;7.064;2022-12-07T05:31:38;12.87;;;8.20;;
7330;SDS011;3706;49.198;7.064;2022-12-07T05:34:05;13.47;;;7.20;;
7330;SDS011;3706;49.198;7.064;2022-12-07T05:36:32;11.50;;;7.73;;
7330;SDS011;3706;49.198;7.064;2022-12-07T05:38:59;14.23;;;8.03;;
7330;SDS011;3706;49.198;7.064;2022-12-07T05:41:26;17.37;;;10.10;;
7330;SDS011;3706;49.198;7.064;2022-12-07T05:44:11;14.07;;;8.10;;
7330;SDS011;3706;49.198;7.064;2022-12-07T05:46:38;10.90;;;7.50;;
7330;SDS011;3706;49.198;7.064;2022-12-07T05:49:05;12.90;;;8.23;;
7330;SDS011;3706;49.198;7.064;2022-12-07T05:51:32;12.00;;;7.47;;
7330;SDS011;3706;49.198;7.064;2022-12-07T05:53:59;14.67;;;8.57;;
7330;SDS011;3706;49.198;7.064;2022-12-07T05:56:26;15.37;;;8.13;;
7330;SDS011;3706;49.198;7.064;2022-12-07T05:58:53;11.07;;;7.03;;
7330;SDS011;3706;49.198;7.064;2022-12-07T06:01:38;12.80;;;9.07;;
7330;SDS011;3706;49.198;7.064;2022-12-07T06:04:05;11.90;;;7.47;;
7330;SDS011;3706;49.198;7.064;2022-12-07T06:06:33;11.50;;;8.53;;
7330;SDS011;3706;49.198;7.064;2022-12-07T06:09:00;12.97;;;8.83;;
7330;SDS011;3706;49.198;7.064;2022-12-07T06:11:27;11.90;;;8.20;;
7330;SDS011;3706;49.198;7.064;2022-12-07T06:14:11;13.47;;;8.00;;
7330;SDS011;3706;49.198;7.064;2022-12-07T06:16:40;10.87;;;7.67;;
7330;SDS011;3706;49.198;7.064;2022-12-07T06:19:07;11.60;;;7.87;;
7330;SDS011;3706;49.198;7.064;2022-12-07T06:21:33;12.27;;;8.37;;
7330;SDS011;3706;49.198;7.064;2022-12-07T06:24:00;10.53;;;8.07;;
7330;SDS011;3706;49.198;7.064;2022-12-07T06:26:27;12.20;;;8.17;;
7330;SDS011;3706;49.198;7.064;2022-12-07T06:28:54;11.83;;;8.63;;
7330;SDS011;3706;49.198;7.064;2022-12-07T06:31:21;11.83;;;8.43;;
7330;SDS011;3706;49.198;7.064;2022-12-07T06:33:50;9.90;;;7.23;;
7330;SDS011;3706;49.198;7.064;2022-12-07T06:36:17;13.90;;;8.83;;
7330;SDS011;3706;49.198;7.064;2022-12-07T06:38:44;13.00;;;8.47;;
7330;SDS011;3706;49.198;7.064;2022-12-07T06:41:10;12.67;;;8.47;;
7330;SDS011;3706;49.198;7.064;2022-12-07T06:43:37;11.80;;;8.60;;
7330;SDS011;3706;49.198;7.064;2022-12-07T06:46:04;13.10;;;8.73;;
7330;SDS011;3706;49.198;7.064;2022-12-07T06:48:31;10.33;;;7.97;;
7330;SDS011;3706;49.198;7.064;2022-12-07T06:51:00;12.83;;;8.93;;
7330;SDS011;3706;49.198;7.064;2022-12-07T06:53:27;14.87;;;9.23;;
7330;SDS011;3706;49.198;7.064;2022-12-07T06:55:54;13.47;;;9.13;;
7330;SDS011;3706;49.198;7.064;2022-12-07T06:58:21;14.10;;;10.30;;
7330;SDS011;3706;49.198;7.064;2022-12-07T07:00:48;12.70;;;8.97;;
7330;SDS011;3706;49.198;7.064;2022-12-07T07:03:15;15.47;;;10.87;;
7330;SDS011;3706;49.198;7.064;2022-12-07T07:05:42;18.90;;;11.13;;
7330;SDS011;3706;49.198;7.064;2022-12-07T07:08:11;18.00;;;11.23;;
7330;SDS011;3706;49.198;7.064;2022-12-07T07:10:38;20.43;;;11.90;;
7330;SDS011;3706;49.198;7.064;2022-12-07T07:13:06;12.07;;;8.30;;
7330;SDS011;3706;49.198;7.064;2022-12-07T07:15:33;14.17;;;8.90;;
7330;SDS011;3706;49.198;7.064;2022-12-07T07:18:00;16.37;;;10.93;;
7330;SDS011;3706;49.198;7.064;2022-12-07T07:20:28;13.70;;;9.47;;
7330;SDS011;3706;49.198;7.064;2022-12-07T07:22:55;15.33;;;10.33;;
7330;SDS011;3706;49.198;7.064;2022-12-07T07:25:23;10.37;;;7.97;;
7330;SDS011;3706;49.198;7.064;2022-12-07T07:27:50;18.13;;;11.53;;
7330;SDS011;3706;49.198;7.064;2022-12-07T07:30:17;18.73;;;12.37;;
7330;SDS011;3706;49.198;7.064;2022-12-07T07:32:44;12.90;;;9.93;;
7330;SDS011;3706;49.198;7.064;2022-12-07T07:35:11;22.03;;;13.10;;
7330;SDS011;3706;49.198;7.064;2022-12-07T07:37:39;18.37;;;12.23;;
7330;SDS011;3706;49.198;7.064;2022-12-07T07:40:06;18.70;;;12.60;;
7330;SDS011;3706;49.198;7.064;2022-12-07T07:42:35;21.57;;;10.97;;
7330;SDS011;3706;49.198;7.064;2022-12-07T07:45:02;20.93;;;12.80;;
7330;SDS011;3706;49.198;7.064;2022-12-07T07:47:30;15.33;;;8.83;;
7330;SDS011;3706;49.198;7.064;2022-12-07T07:49:56;13.47;;;10.03;;
7330;SDS011;3706;49.198;7.064;2022-12-07T07:52:23;15.40;;;10.03;;
7330;SDS011;3706;49.198;7.064;2022-12-07T07:54:50;18.03;;;11.60;;
7330;SDS011;3706;49.198;7.064;2022-12-07T07:57:17;16.67;;;11.50;;
7330;SDS011;3706;49.198;7.064;2022-12-07T07:59:46;16.97;;;11.03;;
7330;SDS011;3706;49.198;7.064;2022-12-07T08:02:13;21.80;;;13.77;;
7330;SDS011;3706;49.198;7.064;2022-12-07T08:04:41;18.00;;;10.23;;
7330;SDS011;3706;49.198;7.064;2022-12-07T08:07:08;18.00;;;11.83;;
7330;SDS011;3706;49.198;7.064;2022-12-07T08:09:37;21.93;;;13.67;;
7330;SDS011;3706;49.198;7.064;2022-12-07T08:12:04;16.33;;;11.63;;
7330;SDS011;3706;49.198;7.064;2022-12-07T08:14:32;21.60;;;13.50;;
7330;SDS011;3706;49.198;7.064;2022-12-07T08:17:00;19.60;;;13.37;;
7330;SDS011;3706;49.198;7.064;2022-12-07T08:19:27;18.80;;;11.77;;
7330;SDS011;3706;49.198;7.064;2022-12-07T08:21:54;19.90;;;12.73;;
7330;SDS011;3706;49.198;7.064;2022-12-07T08:24:22;20.20;;;12.97;;
7330;SDS011;3706;49.198;7.064;2022-12-07T08:26:50;18.27;;;10.57;;
7330;SDS011;3706;49.198;7.064;2022-12-07T08:29:17;22.57;;;13.50;;
7330;SDS011;3706;49.198;7.064;2022-12-07T08:31:44;13.67;;;9.00;;
7330;SDS011;3706;49.198;7.064;2022-12-07T08:34:13;21.63;;;13.80;;
7330;SDS011;3706;49.198;7.064;2022-12-07T08:36:40;16.77;;;11.30;;
7330;SDS011;3706;49.198;7.064;2022-12-07T08:39:06;12.13;;;8.40;;
7330;SDS011;3706;49.198;7.064;2022-12-07T08:41:33;15.53;;;10.93;;
7330;SDS011;3706;49.198;7.064;2022-12-07T08:44:01;13.57;;;8.93;;
7330;SDS011;3706;49.198;7.064;2022-12-07T08:46:29;18.40;;;10.70;;
7330;SDS011;3706;49.198;7.064;2022-12-07T08:49:02;17.23;;;12.60;;
7330;SDS011;3706;49.198;7.064;2022-12-07T08:51:33;15.80;;;10.03;;
7330;SDS011;3706;49.198;7.064;2022-12-07T08:54:00;16.80;;;11.63;;
7330;SDS011;3706;49.198;7.064;2022-12-07T08:56:30;14.10;;;10.73;;
7330;SDS011;3706;49.198;7.064;2022-12-07T08:58:57;18.17;;;11.97;;
7330;SDS011;3706;49.198;7.064;2022-12-07T09:01:24;16.87;;;11.27;;
7330;SDS011;3706;49.198;7.064;2022-12-07T09:03:52;16.30;;;9.90;;
7330;SDS011;3706;49.198;7.064;2022-12-07T09:06:19;19.53;;;12.60;;
7330;SDS011;3706;49.198;7.064;2022-12-07T09:08:47;15.40;;;10.53;;
7330;SDS011;3706;49.198;7.064;2022-12-07T09:11:18;15.50;;;9.63;;
7330;SDS011;3706;49.198;7.064;2022-12-07T09:13:45;13.83;;;9.87;;
7330;SDS011;3706;49.198;7.064;2022-12-07T09:16:13;19.13;;;11.87;;
7330;SDS011;3706;49.198;7.064;2022-12-07T09:18:39;23.20;;;14.40;;
7330;SDS011;3706;49.198;7.064;2022-12-07T09:21:07;19.80;;;11.93;;
7330;SDS011;3706;49.198;7.064;2022-12-07T09:23:34;16.17;;;10.80;;
7330;SDS011;3706;49.198;7.064;2022-12-07T09:26:02;23.83;;;13.83;;
7330;SDS011;3706;49.198;7.064;2022-12-07T09:28:30;23.50;;;13.97;;
7330;SDS011;3706;49.198;7.064;2022-12-07T09:30:57;21.90;;;14.07;;
7330;SDS011;3706;49.198;7.064;2022-12-07T09:33:24;20.87;;;14.90;;
7330;SDS011;3706;49.198;7.064;2022-12-07T09:35:51;22.13;;;14.83;;
7330;SDS011;3706;49.198;7.064;2022-12-07T09:38:19;23.47;;;15.40;;
7330;SDS011;3706;49.198;7.064;2022-12-07T09:40:46;19.07;;;13.37;;
7330;SDS011;3706;49.198;7.064;2022-12-07T09:43:15;18.77;;;12.47;;
7330;SDS011;3706;49.198;7.064;2022-12-07T09:45:45;16.07;;;11.23;;
7330;SDS011;3706;49.198;7.064;2022-12-07T09:48:16;18.13;;;12.13;;
7330;SDS011;3706;49.198;7.064;2022-12-07T09:50:45;22.13;;;14.47;;
7330;SDS011;3706;49.198;7.064;2022-12-07T09:53:15;16.37;;;11.10;;
7330;SDS011;3706;49.198;7.064;2022-12-07T09:55:47;18.40;;;12.27;;
7330;SDS011;3706;49.198;7.064;2022-12-07T09:58:19;19.93;;;14.90;;
7330;SDS011;3706;49.198;7.064;2022-12-07T10:00:49;18.40;;;12.77;;
7330;SDS011;3706;49.198;7.064;2022-12-07T10:03:19;19.57;;;13.13;;
7330;SDS011;3706;49.198;7.064;2022-12-07T10:05:47;24.93;;;15.70;;
7330;SDS011;3706;49.198;7.064;2022-12-07T10:08:17;23.37;;;13.03;;
7330;SDS011;3706;49.198;7.064;2022-12-07T10:10:44;15.67;;;10.07;;
7330;SDS011;3706;49.198;7.064;2022-12-07T10:13:12;21.00;;;13.80;;
7330;SDS011;3706;49.198;7.064;2022-12-07T10:15:43;17.80;;;11.80;;
7330;SDS011;3706;49.198;7.064;2022-12-07T10:18:17;19.10;;;12.87;;
7330;SDS011;3706;49.198;7.064;2022-12-07T10:20:48;20.73;;;14.33;;
7330;SDS011;3706;49.198;7.064;2022-12-07T10:23:15;17.07;;;12.70;;
7330;SDS011;3706;49.198;7.064;2022-12-07T10:25:44;19.17;;;13.40;;
7330;SDS011;3706;49.198;7.064;2022-12-07T10:28:14;19.13;;;13.20;;
7330;SDS011;3706;49.198;7.064;2022-12-07T10:30:47;17.20;;;11.03;;
7330;SDS011;3706;49.198;7.064;2022-12-07T10:36:16;16.60;;;11.40;;
7330;SDS011;3706;49.198;7.064;2022-12-07T10:38:46;17.03;;;10.20;;
7330;SDS011;3706;49.198;7.064;2022-12-07T10:41:14;16.43;;;11.77;;
7330;SDS011;3706;49.198;7.064;2022-12-07T10:43:48;15.00;;;10.80;;
7330;SDS011;3706;49.198;7.064;2022-12-07T10:46:25;17.63;;;11.60;;
7330;SDS011;3706;49.198;7.064;2022-12-07T10:49:15;24.80;;;17.70;;
7330;SDS011;3706;49.198;7.064;2022-12-07T10:52:04;14.03;;;10.70;;
7330;SDS011;3706;49.198;7.064;2022-12-07T10:54:42;15.03;;;10.93;;
7330;SDS011;3706;49.198;7.064;2022-12-07T10:57:23;17.07;;;13.47;;
7330;SDS011;3706;49.198;7.064;2022-12-07T11:00:01;16.43;;;10.73;;
7330;SDS011;3706;49.198;7.064;2022-12-07T11:02:44;16.27;;;11.00;;
7330;SDS011;3706;49.198;7.064;2022-12-07T11:05:24;16.47;;;11.80;;
7330;SDS011;3706;49.198;7.064;2022-12-07T11:08:00;15.13;;;10.67;;
7330;SDS011;3706;49.198;7.064;2022-12-07T11:10:37;19.10;;;11.07;;
7330;SDS011;3706;49.198;7.064;2022-12-07T11:13:17;14.67;;;11.13;;
7330;SDS011;3706;49.198;7.064;2022-12-07T11:15:55;16.17;;;11.57;;
7330;SDS011;3706;49.198;7.064;2022-12-07T11:18:39;13.53;;;10.07;;
7330;SDS011;3706;49.198;7.064;2022-12-07T11:21:15;15.03;;;10.67;;
7330;SDS011;3706;49.198;7.064;2022-12-07T11:23:52;13.73;;;10.37;;
7330;SDS011;3706;49.198;7.064;2022-12-07T11:26:30;22.33;;;17.00;;
7330;SDS011;3706;49.198;7.064;2022-12-07T11:29:14;18.40;;;13.77;;
7330;SDS011;3706;49.198;7.064;2022-12-07T11:31:57;12.47;;;10.23;;
7330;SDS011;3706;49.198;7.064;2022-12-07T11:34:36;15.40;;;10.97;;
7330;SDS011;3706;49.198;7.064;2022-12-07T11:37:10;12.30;;;8.43;;
7330;SDS011;3706;49.198;7.064;2022-12-07T11:39:44;13.23;;;9.60;;
7330;SDS011;3706;49.198;7.064;2022-12-07T11:42:19;13.63;;;9.03;;
7330;SDS011;3706;49.198;7.064;2022-12-07T11:44:50;9.73;;;7.20;;
7330;SDS011;3706;49.198;7.064;2022-12-07T11:47:21;11.87;;;8.60;;
7330;SDS011;3706;49.198;7.064;2022-12-07T11:49:56;7.57;;;5.50;;
7330;SDS011;3706;49.198;7.064;2022-12-07T11:52:27;7.10;;;5.40;;
7330;SDS011;3706;49.198;7.064;2022-12-07T11:55:03;11.30;;;6.20;;
7330;SDS011;3706;49.198;7.064;2022-12-07T11:57:41;10.63;;;7.17;;
7330;SDS011;3706;49.198;7.064;2022-12-07T12:00:14;9.50;;;6.47;;
7330;SDS011;3706;49.198;7.064;2022-12-07T12:02:43;7.60;;;5.17;;
7330;SDS011;3706;49.198;7.064;2022-12-07T12:05:19;8.70;;;5.60;;
7330;SDS011;3706;49.198;7.064;2022-12-07T12:07:49;7.90;;;4.57;;
7330;SDS011;3706;49.198;7.064;2022-12-07T12:10:26;6.17;;;4.87;;
7330;SDS011;3706;49.198;7.064;2022-12-07T12:13:04;8.37;;;5.13;;
7330;SDS011;3706;49.198;7.064;2022-12-07T12:15:51;6.73;;;4.47;;
7330;SDS011;3706;49.198;7.064;2022-12-07T12:18:40;6.93;;;5.40;;
7330;SDS011;3706;49.198;7.064;2022-12-07T12:21:18;7.13;;;4.87;;
7330;SDS011;3706;49.198;7.064;2022-12-07T12:23:49;7.03;;;5.40;;
7330;SDS011;3706;49.198;7.064;2022-12-07T12:26:22;7.20;;;5.83;;
7330;SDS011;3706;49.198;7.064;2022-12-07T12:28:52;7.63;;;5.47;;
7330;SDS011;3706;49.198;7.064;2022-12-07T12:31:32;8.43;;;5.63;;
7330;SDS011;3706;49.198;7.064;2022-12-07T12:34:10;7.07;;;5.17;;
7330;SDS011;3706;49.198;7.064;2022-12-07T12:36:59;7.10;;;5.20;;
7330;SDS011;3706;49.198;7.064;2022-12-07T12:39:26;8.03;;;6.60;;
7330;SDS011;3706;49.198;7.064;2022-12-07T12:41:57;7.63;;;5.93;;
7330;SDS011;3706;49.198;7.064;2022-12-07T12:47:51;6.33;;;4.33;;
7330;SDS011;3706;49.198;7.064;2022-12-07T12:50:25;7.47;;;4.93;;
7330;SDS011;3706;49.198;7.064;2022-12-07T12:52:58;6.50;;;4.73;;
7330;SDS011;3706;49.198;7.064;2022-12-07T12:58:35;8.83;;;4.97;;
7330;SDS011;3706;49.198;7.064;2022-12-07T13:04:23;6.10;;;4.70;;
7330;SDS011;3706;49.198;7.064;2022-12-07T13:06:58;7.50;;;5.37;;
7330;SDS011;3706;49.198;7.064;2022-12-07T13:09:25;6.33;;;5.00;;
7330;SDS011;3706;49.198;7.064;2022-12-07T13:11:57;9.07;;;6.03;;
7330;SDS011;3706;49.198;7.064;2022-12-07T13:14:40;7.60;;;5.23;;
7330;SDS011;3706;49.198;7.064;2022-12-07T13:17:09;8.73;;;5.30;;
7330;SDS011;3706;49.198;7.064;2022-12-07T13:22:40;6.97;;;5.30;;
7330;SDS011;3706;49.198;7.064;2022-12-07T13:28:09;7.97;;;6.13;;
7330;SDS011;3706;49.198;7.064;2022-12-07T13:30:43;9.27;;;5.67;;
7330;SDS011;3706;49.198;7.064;2022-12-07T13:33:13;9.60;;;7.20;;
7330;SDS011;3706;49.198;7.064;2022-12-07T13:35:43;8.23;;;5.50;;
7330;SDS011;3706;49.198;7.064;2022-12-07T13:38:22;9.10;;;6.80;;
7330;SDS011;3706;49.198;7.064;2022-12-07T13:41:10;7.30;;;6.13;;
7330;SDS011;3706;49.198;7.064;2022-12-07T13:43:43;9.47;;;5.63;;
7330;SDS011;3706;49.198;7.064;2022-12-07T13:46:11;8.43;;;5.37;;
7330;SDS011;3706;49.198;7.064;2022-12-07T13:48:43;6.80;;;5.20;;
7330;SDS011;3706;49.198;7.064;2022-12-07T13:51:19;7.10;;;5.27;;
7330;SDS011;3706;49.198;7.064;2022-12-07T13:53:50;8.13;;;5.77;;
7330;SDS011;3706;49.198;7.064;2022-12-07T13:56:20;8.30;;;5.93;;
7330;SDS011;3706;49.198;7.064;2022-12-07T13:58:49;7.10;;;5.63;;
7330;SDS011;3706;49.198;7.064;2022-12-07T14:01:16;7.37;;;5.83;;
7330;SDS011;3706;49.198;7.064;2022-12-07T14:03:43;11.80;;;7.20;;
7330;SDS011;3706;49.198;7.064;2022-12-07T14:06:19;7.57;;;4.73;;
7330;SDS011;3706;49.198;7.064;2022-12-07T14:09:06;8.57;;;6.50;;
7330;SDS011;3706;49.198;7.064;2022-12-07T14:11:44;9.10;;;6.20;;
7330;SDS011;3706;49.198;7.064;2022-12-07T14:14:13;8.30;;;4.93;;
7330;SDS011;3706;49.198;7.064;2022-12-07T14:16:45;9.17;;;6.70;;
7330;SDS011;3706;49.198;7.064;2022-12-07T14:22:17;7.67;;;5.20;;
7330;SDS011;3706;49.198;7.064;2022-12-07T14:24:49;7.40;;;5.00;;
7330;SDS011;3706;49.198;7.064;2022-12-07T14:27:17;5.13;;;4.40;;
7330;SDS011;3706;49.198;7.064;2022-12-07T14:29:45;6.50;;;4.80;;
7330;SDS011;3706;49.198;7.064;2022-12-07T14:32:23;7.30;;;5.30;;
7330;SDS011;3706;49.198;7.064;2022-12-07T14:34:57;7.90;;;5.10;;
7330;SDS011;3706;49.198;7.064;2022-12-07T14:37:26;6.70;;;5.17;;
7330;SDS011;3706;49.198;7.064;2022-12-07T14:39:56;8.30;;;4.90;;
7330;SDS011;3706;49.198;7.064;2022-12-07T14:42:24;9.13;;;5.70;;
7330;SDS011;3706;49.198;7.064;2022-12-07T14:44:53;6.10;;;4.70;;
7330;SDS011;3706;49.198;7.064;2022-12-07T14:47:20;6.20;;;4.70;;
7330;SDS011;3706;49.198;7.064;2022-12-07T14:49:47;8.37;;;5.10;;
7330;SDS011;3706;49.198;7.064;2022-12-07T14:52:15;5.47;;;4.47;;
7330;SDS011;3706;49.198;7.064;2022-12-07T14:54:45;5.77;;;4.60;;
7330;SDS011;3706;49.198;7.064;2022-12-07T14:57:13;8.10;;;5.43;;
7330;SDS011;3706;49.198;7.064;2022-12-07T14:59:40;6.50;;;5.03;;
7330;SDS011;3706;49.198;7.064;2022-12-07T15:02:08;7.37;;;4.87;;
7330;SDS011;3706;49.198;7.064;2022-12-07T15:04:37;6.47;;;4.77;;
7330;SDS011;3706;49.198;7.064;2022-12-07T15:07:05;7.27;;;4.97;;
7330;SDS011;3706;49.198;7.064;2022-12-07T15:09:35;7.53;;;5.37;;
7330;SDS011;3706;49.198;7.064;2022-12-07T15:12:02;6.90;;;4.77;;
7330;SDS011;3706;49.198;7.064;2022-12-07T15:14:31;8.13;;;4.87;;
7330;SDS011;3706;49.198;7.064;2022-12-07T15:16:58;8.97;;;5.97;;
7330;SDS011;3706;49.198;7.064;2022-12-07T15:19:25;7.17;;;5.30;;
7330;SDS011;3706;49.198;7.064;2022-12-07T15:21:52;7.43;;;5.33;;
7330;SDS011;3706;49.198;7.064;2022-12-07T15:24:19;9.13;;;5.93;;
7330;SDS011;3706;49.198;7.064;2022-12-07T15:26:47;9.40;;;5.87;;
7330;SDS011;3706;49.198;7.064;2022-12-07T15:29:14;10.17;;;5.67;;
7330;SDS011;3706;49.198;7.064;2022-12-07T15:31:43;6.73;;;5.07;;
7330;SDS011;3706;49.198;7.064;2022-12-07T15:34:10;7.90;;;5.23;;
7330;SDS011;3706;49.198;7.064;2022-12-07T15:36:37;9.33;;;5.80;;
7330;SDS011;3706;49.198;7.064;2022-12-07T15:39:04;9.13;;;6.40;;
7330;SDS011;3706;49.198;7.064;2022-12-07T15:41:31;10.03;;;5.63;;
7330;SDS011;3706;49.198;7.064;2022-12-07T15:43:58;7.53;;;5.67;;
7330;SDS011;3706;49.198;7.064;2022-12-07T15:46:44;9.30;;;5.70;;